sensor_id;sensor_type;location;lat;lon;timestamp;pressure;altitude;pressure_sealevel;temperature;humidity
70445;BME280;57902;49.638;11.070;2023-04-28T00:05:07;98216.63;;;9.33;63.79
70445;BME280;57902;49.638;11.070;2023-04-28T00:07:38;98218.84;;;9.46;63.34
70445;BME280;57902;49.638;11.070;2023-04-28T00:10:06;98217.63;;;9.60;62.78
70445;BME280;57902;49.638;11.070;2023-04-28T00:12:41;98218.97;;;9.75;62.01
70445;BME280;57902;49.638;11.070;2023-04-28T00:15:28;98210.88;;;9.87;61.10
70445;BME280;57902;49.638;11.070;2023-04-28T00:17:55;98199.53;;;9.94;60.84
70445;BME280;57902;49.638;11.070;2023-04-28T00:20:27;98207.03;;;10.02;60.54
70445;BME280;57902;49.638;11.070;2023-04-28T00:23:01;98206.78;;;10.10;60.39
70445;BME280;57902;49.638;11.070;2023-04-28T00:25:28;98206.78;;;10.10;59.95
70445;BME280;57902;49.638;11.070;2023-04-28T00:27:54;98203.25;;;10.14;60.24
70445;BME280;57902;49.638;11.070;2023-04-28T00:30:21;98193.75;;;10.16;60.65
70445;BME280;57902;49.638;11.070;2023-04-28T00:32:48;98193.72;;;10.18;60.13
70445;BME280;57902;49.638;11.070;2023-04-28T00:35:14;98187.88;;;10.11;60.43
70445;BME280;57902;49.638;11.070;2023-04-28T00:37:41;98188.72;;;10.11;60.53
70445;BME280;57902;49.638;11.070;2023-04-28T00:40:08;98180.31;;;10.06;60.91
70445;BME280;57902;49.638;11.070;2023-04-28T00:42:35;98177.78;;;10.05;61.05
70445;BME280;57902;49.638;11.070;2023-04-28T00:45:03;98175.16;;;10.06;60.81
70445;BME280;57902;49.638;11.070;2023-04-28T00:47:36;98175.84;;;10.11;60.65
70445;BME280;57902;49.638;11.070;2023-04-28T00:50:04;98174.19;;;10.10;60.66
70445;BME280;57902;49.638;11.070;2023-04-28T00:52:31;98168.13;;;10.11;61.06
70445;BME280;57902;49.638;11.070;2023-04-28T00:54:58;98171.66;;;10.09;61.02
70445;BME280;57902;49.638;11.070;2023-04-28T00:57:24;98175.00;;;10.11;61.08
70445;BME280;57902;49.638;11.070;2023-04-28T00:59:51;98175.09;;;10.08;61.54
70445;BME280;57902;49.638;11.070;2023-04-28T01:02:18;98169.94;;;10.08;61.58
70445;BME280;57902;49.638;11.070;2023-04-28T01:04:45;98167.41;;;10.06;62.01
70445;BME280;57902;49.638;11.070;2023-04-28T01:07:14;98158.81;;;10.07;62.25
70445;BME280;57902;49.638;11.070;2023-04-28T01:09:56;98159.56;;;10.11;62.06
70445;BME280;57902;49.638;11.070;2023-04-28T01:12:23;98145.78;;;10.12;62.11
70445;BME280;57902;49.638;11.070;2023-04-28T01:14:50;98137.09;;;10.16;61.83
70445;BME280;57902;49.638;11.070;2023-04-28T01:17:19;98136.19;;;10.17;61.81
70445;BME280;57902;49.638;11.070;2023-04-28T01:19:48;98134.53;;;10.16;62.43
70445;BME280;57902;49.638;11.070;2023-04-28T01:22:16;98136.94;;;10.21;62.02
70445;BME280;57902;49.638;11.070;2023-04-28T01:24:43;98121.63;;;10.16;62.52
70445;BME280;57902;49.638;11.070;2023-04-28T01:27:13;98120.72;;;10.17;62.56
70445;BME280;57902;49.638;11.070;2023-04-28T01:29:40;98127.66;;;10.15;62.76
70445;BME280;57902;49.638;11.070;2023-04-28T01:32:06;98130.19;;;10.16;62.95
70445;BME280;57902;49.638;11.070;2023-04-28T01:34:32;98138.84;;;10.14;63.02
70445;BME280;57902;49.638;11.070;2023-04-28T01:36:59;98125.19;;;10.12;63.24
70445;BME280;57902;49.638;11.070;2023-04-28T01:39:25;98124.16;;;10.18;63.07
70445;BME280;57902;49.638;11.070;2023-04-28T01:41:52;98122.53;;;10.15;63.32
70445;BME280;57902;49.638;11.070;2023-04-28T01:44:18;98123.25;;;10.19;63.55
70445;BME280;57902;49.638;11.070;2023-04-28T01:46:48;98128.31;;;10.22;63.44
70445;BME280;57902;49.638;11.070;2023-04-28T01:49:14;98126.59;;;10.22;63.39
70445;BME280;57902;49.638;11.070;2023-04-28T01:51:40;98115.56;;;10.17;63.84
70445;BME280;57902;49.638;11.070;2023-04-28T01:54:08;98107.03;;;10.16;63.71
70445;BME280;57902;49.638;11.070;2023-04-28T01:56:36;98110.53;;;10.14;63.74
70445;BME280;57902;49.638;11.070;2023-04-28T01:59:02;98108.00;;;10.12;63.99
70445;BME280;57902;49.638;11.070;2023-04-28T02:01:28;98100.13;;;10.17;63.70
70445;BME280;57902;49.638;11.070;2023-04-28T02:03:55;98093.38;;;10.13;64.17
70445;BME280;57902;49.638;11.070;2023-04-28T02:06:22;98101.91;;;10.15;63.94
70445;BME280;57902;49.638;11.070;2023-04-28T02:08:48;98099.69;;;10.03;64.64
70445;BME280;57902;49.638;11.070;2023-04-28T02:11:15;98103.28;;;9.98;64.81
70445;BME280;57902;49.638;11.070;2023-04-28T02:13:41;98103.97;;;10.04;65.05
70445;BME280;57902;49.638;11.070;2023-04-28T02:16:08;98098.81;;;10.04;64.97
70445;BME280;57902;49.638;11.070;2023-04-28T02:18:34;98092.84;;;10.03;65.07
70445;BME280;57902;49.638;11.070;2023-04-28T02:21:11;98100.41;;;10.08;64.93
70445;BME280;57902;49.638;11.070;2023-04-28T02:23:38;98098.66;;;10.08;65.19
70445;BME280;57902;49.638;11.070;2023-04-28T02:26:05;98102.06;;;10.10;64.89
70445;BME280;57902;49.638;11.070;2023-04-28T02:28:32;98098.66;;;10.08;65.21
70445;BME280;57902;49.638;11.070;2023-04-28T02:31:08;98091.59;;;10.15;64.82
70445;BME280;57902;49.638;11.070;2023-04-28T02:33:36;98087.63;;;10.05;65.37
70445;BME280;57902;49.638;11.070;2023-04-28T02:36:04;98091.13;;;10.02;65.85
70445;BME280;57902;49.638;11.070;2023-04-28T02:38:31;98095.31;;;10.06;65.35
70445;BME280;57902;49.638;11.070;2023-04-28T02:41:04;98079.91;;;10.05;65.62
70445;BME280;57902;49.638;11.070;2023-04-28T02:43:32;98082.44;;;10.06;65.45
70445;BME280;57902;49.638;11.070;2023-04-28T02:45:58;98085.94;;;10.04;65.88
70445;BME280;57902;49.638;11.070;2023-04-28T02:48:25;98083.38;;;10.04;65.87
70445;BME280;57902;49.638;11.070;2023-04-28T02:50:52;98087.44;;;10.11;65.79
70445;BME280;57902;49.638;11.070;2023-04-28T02:53:19;98084.75;;;10.14;65.61
70445;BME280;57902;49.638;11.070;2023-04-28T02:55:46;98074.56;;;10.11;65.74
70445;BME280;57902;49.638;11.070;2023-04-28T02:58:12;98076.34;;;10.09;65.54
70445;BME280;57902;49.638;11.070;2023-04-28T03:00:39;98072.81;;;10.11;65.67
70445;BME280;57902;49.638;11.070;2023-04-28T03:03:05;98064.34;;;10.08;65.92
70445;BME280;57902;49.638;11.070;2023-04-28T03:05:32;98062.56;;;10.10;66.33
70445;BME280;57902;49.638;11.070;2023-04-28T03:07:58;98060.03;;;10.08;66.11
70445;BME280;57902;49.638;11.070;2023-04-28T03:10:25;98055.56;;;10.15;65.64
70445;BME280;57902;49.638;11.070;2023-04-28T03:12:52;98048.81;;;10.11;66.33
70445;BME280;57902;49.638;11.070;2023-04-28T03:15:18;98043.75;;;10.08;66.30
70445;BME280;57902;49.638;11.070;2023-04-28T03:17:45;98043.66;;;10.11;66.26
70445;BME280;57902;49.638;11.070;2023-04-28T03:20:11;98034.44;;;10.04;66.64
70445;BME280;57902;49.638;11.070;2023-04-28T03:22:38;98033.34;;;10.11;66.39
70445;BME280;57902;49.638;11.070;2023-04-28T03:25:05;98032.41;;;10.13;65.97
70445;BME280;57902;49.638;11.070;2023-04-28T03:27:31;98025.72;;;10.08;66.34
70445;BME280;57902;49.638;11.070;2023-04-28T03:29:58;98026.41;;;10.13;66.35
70445;BME280;57902;49.638;11.070;2023-04-28T03:32:24;98026.44;;;10.11;66.64
70445;BME280;57902;49.638;11.070;2023-04-28T03:34:51;98022.94;;;10.14;66.41
70445;BME280;57902;49.638;11.070;2023-04-28T03:37:17;98026.41;;;10.13;66.53
70445;BME280;57902;49.638;11.070;2023-04-28T03:39:43;98022.84;;;10.17;66.32
70445;BME280;57902;49.638;11.070;2023-04-28T03:42:10;98021.34;;;10.10;66.97
70445;BME280;57902;49.638;11.070;2023-04-28T03:44:37;98017.91;;;10.11;66.90
70445;BME280;57902;49.638;11.070;2023-04-28T03:47:03;98016.09;;;10.13;66.97
70445;BME280;57902;49.638;11.070;2023-04-28T03:49:31;98016.75;;;10.20;66.45
70445;BME280;57902;49.638;11.070;2023-04-28T03:51:57;98010.78;;;10.19;66.32
70445;BME280;57902;49.638;11.070;2023-04-28T03:54:23;98013.50;;;10.14;66.87
70445;BME280;57902;49.638;11.070;2023-04-28T03:56:50;98014.28;;;10.16;66.70
70445;BME280;57902;49.638;11.070;2023-04-28T03:59:16;98015.13;;;10.17;66.78
70445;BME280;57902;49.638;11.070;2023-04-28T04:01:43;98007.50;;;10.14;66.73
70445;BME280;57902;49.638;11.070;2023-04-28T04:04:09;98002.22;;;10.17;66.91
70445;BME280;57902;49.638;11.070;2023-04-28T04:06:36;98003.78;;;10.23;66.61
70445;BME280;57902;49.638;11.070;2023-04-28T04:09:02;97999.66;;;10.17;67.06
70445;BME280;57902;49.638;11.070;2023-04-28T04:11:29;98002.03;;;10.23;66.56
70445;BME280;57902;49.638;11.070;2023-04-28T04:13:56;98002.63;;;10.31;66.49
70445;BME280;57902;49.638;11.070;2023-04-28T04:16:22;98007.72;;;10.35;66.27
70445;BME280;57902;49.638;11.070;2023-04-28T04:18:49;98004.25;;;10.36;66.55
70445;BME280;57902;49.638;11.070;2023-04-28T04:21:15;98000.84;;;10.35;67.22
70445;BME280;57902;49.638;11.070;2023-04-28T04:23:42;98002.50;;;10.36;67.34
70445;BME280;57902;49.638;11.070;2023-04-28T04:26:08;98000.75;;;10.38;67.13
70445;BME280;57902;49.638;11.070;2023-04-28T04:28:34;98004.31;;;10.34;67.74
70445;BME280;57902;49.638;11.070;2023-04-28T04:31:01;97999.09;;;10.36;67.73
70445;BME280;57902;49.638;11.070;2023-04-28T04:33:28;97993.06;;;10.37;67.92
70445;BME280;57902;49.638;11.070;2023-04-28T04:35:59;97991.06;;;10.45;67.77
70445;BME280;57902;49.638;11.070;2023-04-28T04:38:25;98001.69;;;10.36;68.74
70445;BME280;57902;49.638;11.070;2023-04-28T04:40:52;98002.34;;;10.41;68.95
70445;BME280;57902;49.638;11.070;2023-04-28T04:43:18;97998.88;;;10.42;69.15
70445;BME280;57902;49.638;11.070;2023-04-28T04:45:47;98003.41;;;10.35;70.16
70445;BME280;57902;49.638;11.070;2023-04-28T04:48:14;97998.28;;;10.35;69.96
70445;BME280;57902;49.638;11.070;2023-04-28T04:50:40;98002.56;;;10.35;70.66
70445;BME280;57902;49.638;11.070;2023-04-28T04:53:07;98000.88;;;10.33;71.18
70445;BME280;57902;49.638;11.070;2023-04-28T04:55:40;97993.22;;;10.30;70.42
70445;BME280;57902;49.638;11.070;2023-04-28T04:58:06;97992.19;;;10.36;70.88
70445;BME280;57902;49.638;11.070;2023-04-28T05:00:33;97987.03;;;10.36;71.13
70445;BME280;57902;49.638;11.070;2023-04-28T05:02:59;97999.16;;;10.34;72.49
70445;BME280;57902;49.638;11.070;2023-04-28T05:05:26;97993.41;;;10.24;72.67
70445;BME280;57902;49.638;11.070;2023-04-28T05:07:52;97996.16;;;10.20;74.10
70445;BME280;57902;49.638;11.070;2023-04-28T05:10:19;97994.56;;;10.15;73.00
70445;BME280;57902;49.638;11.070;2023-04-28T05:12:45;97995.31;;;10.19;73.27
70445;BME280;57902;49.638;11.070;2023-04-28T05:15:14;97996.97;;;10.20;73.37
70445;BME280;57902;49.638;11.070;2023-04-28T05:17:41;97999.09;;;10.09;74.55
70445;BME280;57902;49.638;11.070;2023-04-28T05:20:07;98000.03;;;10.06;73.76
70445;BME280;57902;49.638;11.070;2023-04-28T05:22:36;97996.09;;;10.21;73.30
70445;BME280;57902;49.638;11.070;2023-04-28T05:25:02;97988.31;;;10.23;73.01
70445;BME280;57902;49.638;11.070;2023-04-28T05:27:29;97996.94;;;10.22;72.80
70445;BME280;57902;49.638;11.070;2023-04-28T05:29:56;97991.16;;;10.15;73.11
70445;BME280;57902;49.638;11.070;2023-04-28T05:32:23;97993.84;;;10.12;73.75
70445;BME280;57902;49.638;11.070;2023-04-28T05:34:49;98003.97;;;10.16;74.02
70445;BME280;57902;49.638;11.070;2023-04-28T05:37:16;97997.69;;;10.25;73.89
70445;BME280;57902;49.638;11.070;2023-04-28T05:39:42;98001.09;;;10.26;74.48
70445;BME280;57902;49.638;11.070;2023-04-28T05:42:08;98007.28;;;10.20;76.11
70445;BME280;57902;49.638;11.070;2023-04-28T05:44:35;98000.47;;;10.19;76.25
70445;BME280;57902;49.638;11.070;2023-04-28T05:47:01;98000.84;;;10.35;75.91
70445;BME280;57902;49.638;11.070;2023-04-28T05:49:28;98003.44;;;10.33;77.71
70445;BME280;57902;49.638;11.070;2023-04-28T05:51:54;98000.00;;;10.33;77.66
70445;BME280;57902;49.638;11.070;2023-04-28T05:54:21;98002.03;;;10.23;80.11
70445;BME280;57902;49.638;11.070;2023-04-28T05:56:47;97997.59;;;10.28;80.39
70445;BME280;57902;49.638;11.070;2023-04-28T05:59:14;98001.00;;;10.29;79.98
70445;BME280;57902;49.638;11.070;2023-04-28T06:01:41;97993.56;;;10.20;80.84
70445;BME280;57902;49.638;11.070;2023-04-28T06:04:07;97996.31;;;10.15;82.96
70445;BME280;57902;49.638;11.070;2023-04-28T06:06:37;97990.91;;;9.96;84.33
70445;BME280;57902;49.638;11.070;2023-04-28T06:09:04;97988.19;;;10.01;84.17
70445;BME280;57902;49.638;11.070;2023-04-28T06:11:31;97986.72;;;9.92;86.75
70445;BME280;57902;49.638;11.070;2023-04-28T06:13:57;97980.03;;;9.86;86.47
70445;BME280;57902;49.638;11.070;2023-04-28T06:16:23;97982.81;;;9.80;86.14
70445;BME280;57902;49.638;11.070;2023-04-28T06:18:50;97990.38;;;9.85;87.72
70445;BME280;57902;49.638;11.070;2023-04-28T06:21:19;97986.94;;;9.86;87.62
70445;BME280;57902;49.638;11.070;2023-04-28T06:23:46;97981.13;;;9.79;87.13
70445;BME280;57902;49.638;11.070;2023-04-28T06:26:13;97988.59;;;9.88;87.20
70445;BME280;57902;49.638;11.070;2023-04-28T06:28:42;97990.44;;;9.83;89.36
70445;BME280;57902;49.638;11.070;2023-04-28T06:31:09;97998.69;;;9.94;87.38
70445;BME280;57902;49.638;11.070;2023-04-28T06:33:35;97998.00;;;9.88;88.25
70445;BME280;57902;49.638;11.070;2023-04-28T06:36:02;97997.09;;;9.90;87.09
70445;BME280;57902;49.638;11.070;2023-04-28T06:38:29;97992.66;;;9.95;85.66
70445;BME280;57902;49.638;11.070;2023-04-28T06:40:55;97989.97;;;9.98;86.63
70445;BME280;57902;49.638;11.070;2023-04-28T06:43:22;97993.31;;;10.01;86.92
70445;BME280;57902;49.638;11.070;2023-04-28T06:45:48;97984.50;;;10.08;86.74
70445;BME280;57902;49.638;11.070;2023-04-28T06:48:15;97982.78;;;10.08;85.83
70445;BME280;57902;49.638;11.070;2023-04-28T06:50:41;97982.72;;;10.10;86.73
70445;BME280;57902;49.638;11.070;2023-04-28T06:53:09;97969.94;;;10.07;86.70
70445;BME280;57902;49.638;11.070;2023-04-28T06:55:36;97985.13;;;10.16;86.77
70445;BME280;57902;49.638;11.070;2023-04-28T06:58:02;97974.81;;;10.16;86.39
70445;BME280;57902;49.638;11.070;2023-04-28T07:00:29;97967.88;;;10.18;87.26
70445;BME280;57902;49.638;11.070;2023-04-28T07:02:55;97973.56;;;10.28;86.87
70445;BME280;57902;49.638;11.070;2023-04-28T07:05:22;97968.81;;;10.15;88.70
70445;BME280;57902;49.638;11.070;2023-04-28T07:07:48;97966.88;;;10.22;89.62
70445;BME280;57902;49.638;11.070;2023-04-28T07:10:15;97968.81;;;10.15;90.84
70445;BME280;57902;49.638;11.070;2023-04-28T07:12:44;97965.25;;;10.20;88.56
70445;BME280;57902;49.638;11.070;2023-04-28T07:15:11;97959.41;;;10.14;90.95
70445;BME280;57902;49.638;11.070;2023-04-28T07:17:38;97965.50;;;10.12;89.75
70445;BME280;57902;49.638;11.070;2023-04-28T07:20:05;97970.44;;;10.18;90.43
70445;BME280;57902;49.638;11.070;2023-04-28T07:22:32;97966.38;;;10.11;91.99
70445;BME280;57902;49.638;11.070;2023-04-28T07:24:58;97970.97;;;10.01;93.10
70445;BME280;57902;49.638;11.070;2023-04-28T07:27:25;97965.06;;;9.99;92.91
70445;BME280;57902;49.638;11.070;2023-04-28T07:29:51;97970.66;;;9.85;94.75
70445;BME280;57902;49.638;11.070;2023-04-28T07:32:18;97978.41;;;9.84;95.62
70445;BME280;57902;49.638;11.070;2023-04-28T07:34:45;97979.63;;;9.72;98.19
70445;BME280;57902;49.638;11.070;2023-04-28T07:37:11;97990.06;;;9.67;99.52
70445;BME280;57902;49.638;11.070;2023-04-28T07:39:38;97985.50;;;9.77;100.00
70445;BME280;57902;49.638;11.070;2023-04-28T07:42:07;97979.56;;;9.73;100.00
70445;BME280;57902;49.638;11.070;2023-04-28T07:44:33;97980.59;;;9.69;100.00
70445;BME280;57902;49.638;11.070;2023-04-28T07:47:00;97990.31;;;9.59;100.00
70445;BME280;57902;49.638;11.070;2023-04-28T07:49:28;97999.09;;;9.52;100.00
70445;BME280;57902;49.638;11.070;2023-04-28T07:51:55;98012.84;;;9.51;100.00
70445;BME280;57902;49.638;11.070;2023-04-28T07:54:22;98010.78;;;9.34;100.00
70445;BME280;57902;49.638;11.070;2023-04-28T07:56:48;98030.50;;;9.34;100.00
70445;BME280;57902;49.638;11.070;2023-04-28T07:59:15;98027.97;;;9.32;100.00
70445;BME280;57902;49.638;11.070;2023-04-28T08:01:41;98040.63;;;9.40;100.00
70445;BME280;57902;49.638;11.070;2023-04-28T08:04:08;98028.69;;;9.37;100.00
70445;BME280;57902;49.638;11.070;2023-04-28T08:06:35;98035.41;;;9.43;100.00
70445;BME280;57902;49.638;11.070;2023-04-28T08:09:02;98033.72;;;9.42;100.00
70445;BME280;57902;49.638;11.070;2023-04-28T08:11:31;98025.72;;;9.51;100.00
70445;BME280;57902;49.638;11.070;2023-04-28T08:13:58;98024.88;;;9.51;100.00
70445;BME280;57902;49.638;11.070;2023-04-28T08:16:28;98028.38;;;9.48;100.00
70445;BME280;57902;49.638;11.070;2023-04-28T08:18:56;98023.03;;;9.56;100.00
70445;BME280;57902;49.638;11.070;2023-04-28T08:21:24;98014.44;;;9.55;100.00
70445;BME280;57902;49.638;11.070;2023-04-28T08:23:54;98013.91;;;9.45;100.00
70445;BME280;57902;49.638;11.070;2023-04-28T08:26:20;98005.28;;;9.46;100.00
70445;BME280;57902;49.638;11.070;2023-04-28T08:28:47;98007.53;;;9.57;100.00
70445;BME280;57902;49.638;11.070;2023-04-28T08:31:13;98007.25;;;9.67;100.00
70445;BME280;57902;49.638;11.070;2023-04-28T08:33:40;97995.22;;;9.67;100.00
70445;BME280;57902;49.638;11.070;2023-04-28T08:36:10;97995.06;;;9.72;100.00
70445;BME280;57902;49.638;11.070;2023-04-28T08:38:40;97980.53;;;9.71;100.00
70445;BME280;57902;49.638;11.070;2023-04-28T08:41:07;97970.25;;;9.71;100.00
70445;BME280;57902;49.638;11.070;2023-04-28T08:43:36;97961.38;;;9.79;100.00
70445;BME280;57902;49.638;11.070;2023-04-28T08:46:06;97951.38;;;9.70;100.00
70445;BME280;57902;49.638;11.070;2023-04-28T08:48:43;97946.78;;;9.80;100.00
70445;BME280;57902;49.638;11.070;2023-04-28T08:51:24;97951.53;;;9.92;100.00
70445;BME280;57902;49.638;11.070;2023-04-28T08:53:54;97954.28;;;10.13;100.00
70445;BME280;57902;49.638;11.070;2023-04-28T08:56:43;97959.44;;;10.13;100.00
70445;BME280;57902;49.638;11.070;2023-04-28T08:59:13;97960.63;;;10.29;100.00
70445;BME280;57902;49.638;11.070;2023-04-28T09:01:40;97961.50;;;10.28;100.00
70445;BME280;57902;49.638;11.070;2023-04-28T09:04:06;97975.22;;;10.29;100.00
70445;BME280;57902;49.638;11.070;2023-04-28T09:06:37;97976.00;;;10.32;100.00
70445;BME280;57902;49.638;11.070;2023-04-28T09:11:59;97986.34;;;10.31;100.00
70445;BME280;57902;49.638;11.070;2023-04-28T09:14:27;97993.91;;;10.37;100.00
70445;BME280;57902;49.638;11.070;2023-04-28T09:16:55;97993.16;;;10.32;100.00
70445;BME280;57902;49.638;11.070;2023-04-28T09:19:22;97987.81;;;10.11;100.00
70445;BME280;57902;49.638;11.070;2023-04-28T09:21:54;97984.97;;;10.21;100.00
70445;BME280;57902;49.638;11.070;2023-04-28T09:24:32;97962.50;;;10.24;100.00
70445;BME280;57902;49.638;11.070;2023-04-28T09:27:03;97960.81;;;10.23;100.00
70445;BME280;57902;49.638;11.070;2023-04-28T09:29:30;97968.53;;;10.25;100.00
70445;BME280;57902;49.638;11.070;2023-04-28T09:32:12;97977.69;;;10.33;100.00
70445;BME280;57902;49.638;11.070;2023-04-28T09:34:42;97969.81;;;10.38;100.00
70445;BME280;57902;49.638;11.070;2023-04-28T09:37:17;97971.19;;;10.48;100.00
70445;BME280;57902;49.638;11.070;2023-04-28T09:39:52;97969.81;;;10.63;100.00
70445;BME280;57902;49.638;11.070;2023-04-28T09:42:39;97962.91;;;10.64;100.00
70445;BME280;57902;49.638;11.070;2023-04-28T09:45:10;97951.03;;;10.60;100.00
70445;BME280;57902;49.638;11.070;2023-04-28T09:47:45;97942.28;;;10.64;100.00
70445;BME280;57902;49.638;11.070;2023-04-28T09:50:14;97925.81;;;10.68;100.00
70445;BME280;57902;49.638;11.070;2023-04-28T09:52:55;97943.59;;;10.76;100.00
70445;BME280;57902;49.638;11.070;2023-04-28T09:55:23;97957.16;;;10.57;100.00
70445;BME280;57902;49.638;11.070;2023-04-28T09:57:53;97944.75;;;10.67;100.00
70445;BME280;57902;49.638;11.070;2023-04-28T10:00:20;97941.22;;;10.70;100.00
70445;BME280;57902;49.638;11.070;2023-04-28T10:02:48;97945.81;;;10.61;100.00
70445;BME280;57902;49.638;11.070;2023-04-28T10:05:17;97937.72;;;10.72;100.00
70445;BME280;57902;49.638;11.070;2023-04-28T10:07:47;97920.28;;;10.79;100.00
70445;BME280;57902;49.638;11.070;2023-04-28T10:10:13;97925.25;;;10.83;100.00
70445;BME280;57902;49.638;11.070;2023-04-28T10:12:40;97914.00;;;10.86;100.00
70445;BME280;57902;49.638;11.070;2023-04-28T10:15:08;97919.03;;;10.89;100.00
70445;BME280;57902;49.638;11.070;2023-04-28T10:17:35;97916.91;;;11.00;100.00
70445;BME280;57902;49.638;11.070;2023-04-28T10:20:03;97911.50;;;11.07;100.00
70445;BME280;57902;49.638;11.070;2023-04-28T10:22:41;97903.72;;;11.08;100.00
70445;BME280;57902;49.638;11.070;2023-04-28T10:25:32;97913.22;;;11.08;100.00
70445;BME280;57902;49.638;11.070;2023-04-28T10:28:05;97923.94;;;10.97;100.00
70445;BME280;57902;49.638;11.070;2023-04-28T10:30:31;97912.88;;;10.93;100.00
70445;BME280;57902;49.638;11.070;2023-04-28T10:38:12;97914.84;;;10.87;100.00
70445;BME280;57902;49.638;11.070;2023-04-28T10:40:43;97912.41;;;10.82;100.00
70445;BME280;57902;49.638;11.070;2023-04-28T10:43:34;97916.91;;;10.77;100.00
70445;BME280;57902;49.638;11.070;2023-04-28T10:46:04;97921.72;;;10.62;100.00
70445;BME280;57902;49.638;11.070;2023-04-28T10:56:13;97907.25;;;10.82;100.00
70445;BME280;57902;49.638;11.070;2023-04-28T10:58:42;97907.06;;;10.88;100.00
70445;BME280;57902;49.638;11.070;2023-04-28T11:01:27;97906.72;;;10.97;100.00
70445;BME280;57902;49.638;11.070;2023-04-28T11:04:05;97902.66;;;11.14;100.00
70445;BME280;57902;49.638;11.070;2023-04-28T11:06:43;97905.53;;;11.28;100.00
70445;BME280;57902;49.638;11.070;2023-04-28T11:11:37;97911.41;;;11.32;100.00
70445;BME280;57902;49.638;11.070;2023-04-28T11:19:36;97909.25;;;11.43;100.00
70445;BME280;57902;49.638;11.070;2023-04-28T11:22:17;97913.91;;;11.57;100.00
70445;BME280;57902;49.638;11.070;2023-04-28T11:24:58;97916.34;;;11.60;100.00
70445;BME280;57902;49.638;11.070;2023-04-28T11:27:32;97927.88;;;11.73;100.00
70445;BME280;57902;49.638;11.070;2023-04-28T11:30:00;97924.34;;;11.76;100.00
70445;BME280;57902;49.638;11.070;2023-04-28T11:32:32;97929.56;;;11.75;100.00
70445;BME280;57902;49.638;11.070;2023-04-28T11:34:59;97926.13;;;11.74;100.00
70445;BME280;57902;49.638;11.070;2023-04-28T11:37:25;97923.41;;;11.77;100.00
70445;BME280;57902;49.638;11.070;2023-04-28T11:39:52;97929.31;;;11.81;100.00
70445;BME280;57902;49.638;11.070;2023-04-28T11:42:19;97923.75;;;11.90;100.00
70445;BME280;57902;49.638;11.070;2023-04-28T11:44:50;97924.47;;;11.95;100.00
70445;BME280;57902;49.638;11.070;2023-04-28T11:47:28;97927.50;;;12.05;100.00
70445;BME280;57902;49.638;11.070;2023-04-28T11:49:55;97925.56;;;12.10;100.00
70445;BME280;57902;49.638;11.070;2023-04-28T11:52:23;97916.53;;;12.20;100.00
70445;BME280;57902;49.638;11.070;2023-04-28T11:54:53;97915.03;;;12.35;100.00
70445;BME280;57902;49.638;11.070;2023-04-28T11:57:21;97914.56;;;12.46;100.00
70445;BME280;57902;49.638;11.070;2023-04-28T11:59:48;97914.13;;;12.36;100.00
70445;BME280;57902;49.638;11.070;2023-04-28T12:02:23;97905.56;;;12.55;100.00
70445;BME280;57902;49.638;11.070;2023-04-28T12:04:51;97913.97;;;12.60;100.00
70445;BME280;57902;49.638;11.070;2023-04-28T12:07:18;97911.88;;;12.68;100.00
70445;BME280;57902;49.638;11.070;2023-04-28T12:12:31;97911.69;;;12.92;100.00
70445;BME280;57902;49.638;11.070;2023-04-28T12:15:03;97906.34;;;12.97;100.00
70445;BME280;57902;49.638;11.070;2023-04-28T12:17:38;97909.25;;;13.08;100.00
70445;BME280;57902;49.638;11.070;2023-04-28T12:20:07;97903.38;;;13.04;100.00
70445;BME280;57902;49.638;11.070;2023-04-28T12:22:48;97907.97;;;13.17;100.00
70445;BME280;57902;49.638;11.070;2023-04-28T12:25:17;97897.63;;;13.17;100.00
70445;BME280;57902;49.638;11.070;2023-04-28T12:28:05;97904.50;;;13.18;100.00
70445;BME280;57902;49.638;11.070;2023-04-28T12:30:35;97901.75;;;13.21;100.00
70445;BME280;57902;49.638;11.070;2023-04-28T12:33:04;97899.31;;;13.18;100.00
70445;BME280;57902;49.638;11.070;2023-04-28T12:35:30;97907.31;;;13.13;100.00
70445;BME280;57902;49.638;11.070;2023-04-28T12:37:58;97897.91;;;13.10;100.00
70445;BME280;57902;49.638;11.070;2023-04-28T12:40:25;97893.72;;;13.27;100.00
70445;BME280;57902;49.638;11.070;2023-04-28T12:43:00;97889.25;;;13.11;100.00
70445;BME280;57902;49.638;11.070;2023-04-28T12:45:26;97896.94;;;13.13;100.00
70445;BME280;57902;49.638;11.070;2023-04-28T12:47:56;97894.78;;;13.23;100.00
70445;BME280;57902;49.638;11.070;2023-04-28T12:50:22;97880.84;;;13.44;100.00
70445;BME280;57902;49.638;11.070;2023-04-28T12:52:50;97882.16;;;13.71;100.00
70445;BME280;57902;49.638;11.070;2023-04-28T12:55:17;97887.59;;;13.83;100.00
70445;BME280;57902;49.638;11.070;2023-04-28T12:57:43;97890.94;;;13.86;100.00
70445;BME280;57902;49.638;11.070;2023-04-28T13:00:10;97892.47;;;13.90;100.00
70445;BME280;57902;49.638;11.070;2023-04-28T13:02:39;97889.34;;;14.00;100.00
70445;BME280;57902;49.638;11.070;2023-04-28T13:05:06;97892.47;;;14.07;100.00
70445;BME280;57902;49.638;11.070;2023-04-28T13:07:34;97895.38;;;14.01;100.00
70445;BME280;57902;49.638;11.070;2023-04-28T13:10:01;97886.53;;;14.05;100.00
70445;BME280;57902;49.638;11.070;2023-04-28T13:12:27;97894.00;;;13.94;100.00
70445;BME280;57902;49.638;11.070;2023-04-28T13:14:53;97887.44;;;13.87;100.00
70445;BME280;57902;49.638;11.070;2023-04-28T13:17:20;97889.50;;;13.97;100.00
70445;BME280;57902;49.638;11.070;2023-04-28T13:19:47;97886.47;;;13.89;100.00
70445;BME280;57902;49.638;11.070;2023-04-28T13:22:13;97879.66;;;13.69;100.00
70445;BME280;57902;49.638;11.070;2023-04-28T13:24:41;97889.03;;;13.72;100.00